Time;durP1;ratioP1;P1;durP2;ratioP2;P2;SDS_P1;SDS_P2;PMS_P1;PMS_P2;Temp;Humidity;BMP_temperature;BMP_pressure;BME280_temperature;BME280_humidity;BME280_pressure;Samples;Min_cycle;Max_cycle;Signal;HPM_P1;HPM_P2
2023/10/29 00:00:18;;;;;;;6.05;2.60;;;;;;;10.45;100.00;99170.25;5022220;28;20128;-80
2023/10/29 00:02:45;;;;;;;3.35;2.40;;;;;;;10.47;100.00;99166.69;5028936;28;20041;-79
2023/10/29 00:05:11;;;;;;;4.45;2.30;;;;;;;10.49;100.00;99154.41;5003917;28;20104;-78
2023/10/29 00:07:39;;;;;;;7.35;2.90;;;;;;;10.51;100.00;99151.75;5021342;28;20042;-78
2023/10/29 00:10:06;;;;;;;8.50;3.15;;;;;;;10.47;100.00;99137.03;5020467;28;20621;-78
2023/10/29 00:12:34;;;;;;;8.15;3.85;;;;;;;10.44;100.00;99132.75;5022586;28;20049;-78
2023/10/29 00:15:00;;;;;;;5.68;3.15;;;;;;;10.43;100.00;99131.91;5023725;28;20045;-79
2023/10/29 00:17:30;;;;;;;2.92;2.70;;;;;;;10.43;100.00;99126.69;5021566;28;20133;-82
2023/10/29 00:20:00;;;;;;;4.43;2.22;;;;;;;10.44;100.00;99114.44;5022590;28;20065;-78
2023/10/29 00:22:28;;;;;;;3.30;3.05;;;;;;;10.46;100.00;99122.28;5023646;28;20033;-78
2023/10/29 00:24:57;;;;;;;3.75;2.03;;;;;;;10.45;100.00;99120.56;5026698;28;20438;-78
2023/10/29 00:27:23;;;;;;;4.32;2.28;;;;;;;10.48;100.00;99126.56;5021381;28;20095;-80
2023/10/29 00:29:50;;;;;;;4.93;2.08;;;;;;;10.50;100.00;99129.97;5023331;28;20678;-81
2023/10/29 00:32:18;;;;;;;6.13;1.75;;;;;;;10.51;100.00;99130.81;5017519;28;20132;-77
2023/10/29 00:34:47;;;;;;;4.28;2.33;;;;;;;10.53;100.00;99132.50;5021950;28;20041;-77
2023/10/29 00:37:18;;;;;;;2.53;1.38;;;;;;;10.54;100.00;99126.31;5023080;28;20316;-80
2023/10/29 00:39:45;;;;;;;2.40;1.48;;;;;;;10.56;100.00;99124.53;5017477;28;20046;-80
2023/10/29 00:42:11;;;;;;;2.10;1.23;;;;;;;10.54;100.00;99108.00;5018297;28;20069;-78
2023/10/29 00:44:38;;;;;;;4.30;1.50;;;;;;;10.55;100.00;99109.72;5014247;28;20042;-81
2023/10/29 00:47:08;;;;;;;2.25;1.63;;;;;;;10.56;100.00;99095.75;5006559;28;20496;-80
2023/10/29 00:49:36;;;;;;;3.72;1.33;;;;;;;10.57;100.00;99087.00;5036129;28;20041;-78
2023/10/29 00:52:04;;;;;;;2.20;1.40;;;;;;;10.56;100.00;99085.28;5002976;28;20886;-85
2023/10/29 00:54:31;;;;;;;1.60;1.50;;;;;;;10.61;100.00;99086.88;5016649;28;20056;-78
2023/10/29 00:56:58;;;;;;;2.15;1.55;;;;;;;10.61;100.00;99084.25;5037726;28;20128;-79
2023/10/29 00:59:28;;;;;;;3.05;1.25;;;;;;;10.62;100.00;99093.81;5009538;28;20389;-77
2023/10/29 01:01:55;;;;;;;2.33;1.45;;;;;;;10.61;100.00;99089.50;5025098;28;20774;-77
2023/10/29 01:04:22;;;;;;;3.78;1.42;;;;;;;10.64;100.00;99090.25;5024044;28;20052;-80
2023/10/29 01:06:48;;;;;;;3.13;1.55;;;;;;;10.65;100.00;99089.34;5006283;28;20053;-79
2023/10/29 01:09:17;;;;;;;1.35;1.20;;;;;;;10.70;100.00;99097.03;5026014;28;20431;-77
2023/10/29 01:11:44;;;;;;;0.98;0.98;;;;;;;10.69;100.00;99088.34;5019846;28;20046;-78
2023/10/29 01:14:10;;;;;;;3.13;1.58;;;;;;;10.68;100.00;99077.91;5022758;28;20136;-76
2023/10/29 01:16:38;;;;;;;2.47;1.15;;;;;;;10.69;100.00;99070.00;5020636;28;20042;-78
2023/10/29 01:19:05;;;;;;;1.83;1.30;;;;;;;10.68;100.00;99057.81;5019952;28;20053;-77
2023/10/29 01:21:32;;;;;;;2.67;1.67;;;;;;;10.71;100.00;99064.72;5020395;28;20041;-82
2023/10/29 01:24:00;;;;;;;1.17;1.10;;;;;;;10.72;100.00;99058.59;5019562;28;20139;-79
2023/10/29 01:26:27;;;;;;;0.90;0.90;;;;;;;10.73;100.00;99070.75;5015673;28;20046;-78
2023/10/29 01:28:53;;;;;;;1.10;1.08;;;;;;;10.77;100.00;99067.13;5014525;28;20082;-76
2023/10/29 01:31:20;;;;;;;2.42;1.33;;;;;;;10.78;100.00;99063.63;5018142;28;20555;-79
2023/10/29 01:33:50;;;;;;;2.08;1.08;;;;;;;10.78;100.00;99053.13;5017880;28;20046;-81
2023/10/29 01:36:17;;;;;;;2.97;1.35;;;;;;;10.80;100.00;99045.22;5020877;28;20277;-77
2023/10/29 01:38:43;;;;;;;2.47;1.08;;;;;;;10.78;100.00;99036.56;5014450;28;20057;-77
2023/10/29 01:41:10;;;;;;;2.60;1.30;;;;;;;10.79;100.00;99022.56;5015204;28;20120;-80
2023/10/29 01:43:36;;;;;;;6.93;1.52;;;;;;;10.78;100.00;99020.84;5021728;28;20037;-81
2023/10/29 01:46:03;;;;;;;2.67;1.20;;;;;;;10.81;100.00;99018.13;5015458;28;20041;-77
2023/10/29 01:48:29;;;;;;;1.20;1.10;;;;;;;10.78;100.00;99013.00;5002444;28;20037;-82
2023/10/29 01:50:57;;;;;;;1.70;1.52;;;;;;;10.81;100.00;99003.28;5019396;28;20049;-77
2023/10/29 01:53:23;;;;;;;3.38;1.10;;;;;;;10.80;100.00;99001.56;5020835;28;20096;-79
2023/10/29 01:55:50;;;;;;;4.25;1.92;;;;;;;10.83;100.00;98993.59;5021589;28;20056;-77
2023/10/29 01:58:17;;;;;;;4.28;1.17;;;;;;;10.84;100.00;98990.06;5021148;28;20045;-78
2023/10/29 02:00:44;;;;;;;1.20;1.10;;;;;;;10.86;100.00;98990.00;5007014;28;20045;-78
2023/10/29 02:03:11;;;;;;;2.95;1.20;;;;;;;10.89;100.00;98982.06;5023889;28;20057;-77
2023/10/29 02:05:37;;;;;;;2.28;0.90;;;;;;;10.88;100.00;98988.19;5022134;28;20124;-77
2023/10/29 02:08:04;;;;;;;1.10;0.88;;;;;;;10.92;100.00;98979.31;5026331;28;20445;-78
2023/10/29 02:10:31;;;;;;;3.42;0.80;;;;;;;10.93;100.00;98987.13;5033706;28;20045;-80
2023/10/29 02:12:57;;;;;;;1.98;1.23;;;;;;;10.97;100.00;98984.41;5007452;28;20042;-82
2023/10/29 02:15:24;;;;;;;2.22;0.80;;;;;;;10.99;100.00;98972.97;5020848;28;20030;-78
2023/10/29 02:17:50;;;;;;;3.58;0.95;;;;;;;10.99;100.00;98972.97;5006980;28;20037;-77
2023/10/29 02:20:17;;;;;;;1.73;0.77;;;;;;;11.03;100.00;98968.44;5024657;28;20655;-76
2023/10/29 02:22:43;;;;;;;1.33;0.85;;;;;;;11.05;100.00;98961.38;5012268;28;20136;-78
2023/10/29 02:25:13;;;;;;;0.70;0.70;;;;;;;11.05;100.00;98964.84;5025781;28;20045;-79
2023/10/29 02:27:39;;;;;;;1.15;0.60;;;;;;;11.10;100.00;98954.22;5026418;28;20132;-78
2023/10/29 02:30:07;;;;;;;1.15;0.70;;;;;;;11.11;100.00;98949.81;5022024;28;20041;-78
2023/10/29 02:32:34;;;;;;;1.63;0.73;;;;;;;11.11;100.00;98955.06;5018957;28;20087;-78
2023/10/29 02:35:01;;;;;;;0.73;0.73;;;;;;;11.14;100.00;98941.84;5021871;28;20053;-79
2023/10/29 02:37:37;;;;;;;0.88;0.80;;;;;;;11.11;100.00;98939.34;5020817;28;20041;-82
2023/10/29 02:40:05;;;;;;;1.98;1.40;;;;;;;11.13;100.00;98927.06;5022704;28;20119;-77
2023/10/29 02:42:31;;;;;;;1.08;0.70;;;;;;;11.13;100.00;98934.91;5033879;28;20485;-81
2023/10/29 02:45:00;;;;;;;2.00;0.70;;;;;;;11.11;100.00;98934.09;5007175;28;20073;-80
2023/10/29 02:47:27;;;;;;;3.05;0.73;;;;;;;11.13;100.00;98929.66;5010192;28;21032;-77
2023/10/29 02:49:54;;;;;;;5.60;2.10;;;;;;;11.15;100.00;98927.84;5017608;28;20588;-80
2023/10/29 02:52:20;;;;;;;2.25;0.95;;;;;;;11.17;100.00;98929.50;5015979;28;20033;-78
2023/10/29 02:54:48;;;;;;;3.20;0.60;;;;;;;11.16;100.00;98930.41;5024000;28;20477;-79
2023/10/29 02:57:14;;;;;;;1.63;0.50;;;;;;;11.21;100.00;98928.47;5024994;28;20047;-82
2023/10/29 02:59:41;;;;;;;2.78;0.73;;;;;;;11.21;100.00;98912.75;5020854;28;20056;-77
2023/10/29 03:02:08;;;;;;;3.95;0.80;;;;;;;11.22;100.00;98914.47;5014633;28;20059;-77
2023/10/29 03:04:34;;;;;;;3.13;0.75;;;;;;;11.27;100.00;98908.19;5013078;28;20448;-80
2023/10/29 03:07:01;;;;;;;0.80;0.75;;;;;;;11.27;100.00;98900.31;5020964;28;20057;-77
2023/10/29 03:09:27;;;;;;;3.30;0.98;;;;;;;11.29;100.00;98907.22;5020969;28;21173;-79
2023/10/29 03:11:54;;;;;;;2.30;0.57;;;;;;;11.28;100.00;98908.13;5014166;28;20362;-78
2023/10/29 03:14:21;;;;;;;2.15;0.60;;;;;;;11.29;100.00;98915.06;5025584;28;20120;-81
2023/10/29 03:16:47;;;;;;;2.15;0.63;;;;;;;11.28;100.00;98905.50;5029026;28;20080;-76
2023/10/29 03:19:14;;;;;;;2.00;0.50;;;;;;;11.32;100.00;98898.38;5027170;28;20061;-79
2023/10/29 03:21:40;;;;;;;0.80;0.38;;;;;;;11.29;100.00;98882.75;5028547;28;20056;-77
2023/10/29 03:24:07;;;;;;;1.77;0.82;;;;;;;11.27;100.00;98874.13;5024072;28;20037;-80
2023/10/29 03:26:34;;;;;;;3.50;1.27;;;;;;;11.28;100.00;98875.81;5009845;28;20539;-78
2023/10/29 03:29:00;;;;;;;2.60;0.80;;;;;;;11.28;100.00;98860.09;5008941;28;20064;-77
2023/10/29 03:31:27;;;;;;;3.60;0.70;;;;;;;11.26;100.00;98852.31;5008967;28;20060;-81
2023/10/29 03:33:53;;;;;;;2.88;1.13;;;;;;;11.31;100.00;98854.75;5020749;28;20076;-79
2023/10/29 03:36:20;;;;;;;0.95;0.80;;;;;;;11.29;100.00;98854.81;5018255;28;20372;-82
2023/10/29 03:38:48;;;;;;;1.65;0.52;;;;;;;11.30;100.00;98851.25;5006747;28;20082;-80
2023/10/29 03:41:24;;;;;;;1.40;0.75;;;;;;;11.37;100.00;98857.97;5025254;28;20047;-81
2023/10/29 03:43:53;;;;;;;1.60;0.90;;;;;;;11.40;100.00;98863.06;5041795;28;20485;-77
2023/10/29 03:46:22;;;;;;;1.90;0.77;;;;;;;11.41;100.00;98837.75;5024480;28;20045;-78
2023/10/29 03:48:49;;;;;;;4.03;0.95;;;;;;;11.41;100.00;98837.75;5026671;28;20153;-77
2023/10/29 03:51:16;;;;;;;2.80;0.80;;;;;;;11.44;100.00;98831.53;5047233;28;20037;-80
2023/10/29 03:53:42;;;;;;;0.95;0.70;;;;;;;11.47;100.00;98855.84;5041984;28;20053;-78
2023/10/29 03:56:09;;;;;;;2.83;0.65;;;;;;;11.53;100.00;98852.94;5028950;28;20042;-78
2023/10/29 03:58:37;;;;;;;0.73;0.30;;;;;;;11.56;100.00;98831.88;5046037;28;20148;-77
2023/10/29 04:01:04;;;;;;;1.75;0.47;;;;;;;11.64;100.00;98820.19;5020157;28;20557;-81
2023/10/29 04:03:30;;;;;;;1.30;0.50;;;;;;;11.62;100.00;98808.94;5025198;28;20120;-80
2023/10/29 04:05:57;;;;;;;2.22;0.30;;;;;;;11.66;100.00;98807.88;5032503;28;20041;-77
2023/10/29 04:08:24;;;;;;;1.50;0.50;;;;;;;11.71;100.00;98817.25;5025894;28;20060;-77
2023/10/29 04:10:50;;;;;;;0.77;0.50;;;;;;;11.73;100.00;98825.03;5024300;28;20049;-78
2023/10/29 04:13:17;;;;;;;4.38;0.50;;;;;;;11.69;100.00;98826.97;5023676;28;20112;-79
2023/10/29 04:15:43;;;;;;;0.63;0.63;;;;;;;11.72;100.00;98818.94;5023658;28;20056;-77
2023/10/29 04:18:10;;;;;;;2.55;0.43;;;;;;;11.73;100.00;98798.81;5006993;28;20586;-81
2023/10/29 04:20:40;;;;;;;1.63;0.47;;;;;;;11.78;100.00;98788.97;5026203;28;20057;-81
2023/10/29 04:23:07;;;;;;;1.20;0.57;;;;;;;11.82;100.00;98794.94;5004439;28;20128;-78
2023/10/29 04:25:33;;;;;;;4.65;0.80;;;;;;;11.85;100.00;98794.81;5021258;28;20049;-78
2023/10/29 04:28:03;;;;;;;1.02;0.60;;;;;;;11.88;100.00;98790.28;5027126;28;20042;-82
2023/10/29 04:30:30;;;;;;;2.90;0.60;;;;;;;11.89;100.00;98784.13;5009237;28;20478;-77
2023/10/29 04:32:57;;;;;;;1.02;0.47;;;;;;;11.91;100.00;98777.06;5027287;28;20037;-79
2023/10/29 04:35:23;;;;;;;0.85;0.45;;;;;;;11.91;100.00;98779.69;5020428;28;20091;-78
2023/10/29 04:37:50;;;;;;;0.93;0.50;;;;;;;11.98;100.00;98787.28;5024490;28;20045;-79
2023/10/29 04:40:16;;;;;;;3.03;0.38;;;;;;;11.97;100.00;98777.69;5013613;28;20382;-78
2023/10/29 04:42:43;;;;;;;4.47;0.70;;;;;;;12.00;100.00;98767.94;5022301;28;20680;-77
2023/10/29 04:45:11;;;;;;;1.27;0.52;;;;;;;12.03;100.00;98775.69;5022999;28;20048;-79
2023/10/29 04:47:37;;;;;;;2.47;0.70;;;;;;;12.06;100.00;98772.91;5009903;28;20137;-78
2023/10/29 04:50:07;;;;;;;2.78;0.70;;;;;;;12.13;100.00;98773.47;5029979;28;20052;-77
2023/10/29 04:52:34;;;;;;;2.28;0.45;;;;;;;12.12;100.00;98749.94;5039272;28;20058;-77
2023/10/29 04:55:01;;;;;;;4.90;0.70;;;;;;;12.14;100.00;98743.72;5026106;28;20389;-81
2023/10/29 04:57:33;;;;;;;1.08;0.77;;;;;;;12.22;100.00;98732.88;5022106;28;20037;-82
2023/10/29 05:00:00;;;;;;;1.77;0.45;;;;;;;12.21;100.00;98736.41;5038741;28;20053;-78
2023/10/29 05:02:29;;;;;;;1.70;0.25;;;;;;;12.17;100.00;98733.06;5027858;28;20037;-78
2023/10/29 05:04:56;;;;;;;1.13;0.50;;;;;;;12.19;100.00;98739.09;5019174;28;20046;-79
2023/10/29 05:07:22;;;;;;;0.68;0.30;;;;;;;12.19;100.00;98735.63;5023329;28;20489;-79
2023/10/29 05:09:49;;;;;;;0.90;0.45;;;;;;;12.20;100.00;98737.31;5017530;28;20045;-80
2023/10/29 05:12:16;;;;;;;3.50;1.20;;;;;;;12.20;100.00;98726.81;5020506;28;20122;-80
2023/10/29 05:14:43;;;;;;;1.83;0.40;;;;;;;12.16;100.00;98733.16;5022720;28;21455;-78
2023/10/29 05:17:10;;;;;;;0.90;0.40;;;;;;;12.19;100.00;98740.84;5023740;28;20037;-78
2023/10/29 05:19:38;;;;;;;0.40;0.40;;;;;;;12.21;100.00;98742.50;5012176;28;20077;-78
2023/10/29 05:22:05;;;;;;;1.15;0.43;;;;;;;12.26;100.00;98730.97;5019145;28;20045;-78
2023/10/29 05:24:33;;;;;;;0.95;0.52;;;;;;;12.25;100.00;98735.34;5003195;28;20064;-80
2023/10/29 05:27:00;;;;;;;1.10;0.40;;;;;;;12.23;100.00;98755.56;5017926;28;20269;-81
2023/10/29 05:29:27;;;;;;;0.22;0.22;;;;;;;12.18;100.00;98744.44;5016921;28;20041;-81
2023/10/29 05:31:54;;;;;;;0.93;0.50;;;;;;;12.19;100.00;98761.84;5025094;28;20038;-79
2023/10/29 05:34:21;;;;;;;0.35;0.30;;;;;;;12.16;100.00;98747.13;5022272;28;20052;-81
2023/10/29 05:36:48;;;;;;;1.60;0.40;;;;;;;12.14;100.00;98746.34;5039734;28;20049;-79
2023/10/29 05:39:15;;;;;;;2.30;0.77;;;;;;;12.20;100.00;98753.94;5010094;28;20041;-84
2023/10/29 05:41:43;;;;;;;2.17;0.55;;;;;;;12.28;100.00;98765.81;5038048;28;20555;-78
2023/10/29 05:44:09;;;;;;;0.50;0.50;;;;;;;12.29;100.00;98763.13;5020839;28;20045;-77
2023/10/29 05:46:36;;;;;;;1.65;0.20;;;;;;;12.26;100.00;98762.44;5026472;28;20053;-78
2023/10/29 05:49:03;;;;;;;1.27;0.50;;;;;;;12.22;100.00;98756.47;5022709;28;20057;-82
2023/10/29 05:51:29;;;;;;;1.10;0.50;;;;;;;12.23;100.00;98760.81;5000176;28;20042;-78
2023/10/29 05:53:59;;;;;;;0.40;0.40;;;;;;;12.26;100.00;98757.19;5020955;28;20038;-80
2023/10/29 05:56:25;;;;;;;3.72;0.55;;;;;;;12.29;100.00;98751.78;5023878;28;20128;-82
2023/10/29 05:58:51;;;;;;;2.10;0.60;;;;;;;12.33;100.00;98763.84;5021934;28;20494;-77
2023/10/29 06:01:17;;;;;;;1.63;0.63;;;;;;;12.38;100.00;98786.34;5023759;28;20048;-77
2023/10/29 06:03:44;;;;;;;2.50;0.70;;;;;;;12.47;100.00;98794.69;5023864;28;20052;-78
2023/10/29 06:06:10;;;;;;;0.50;0.50;;;;;;;12.49;100.00;98793.69;5042630;28;20124;-81
2023/10/29 06:08:37;;;;;;;3.95;0.40;;;;;;;12.50;100.00;98784.03;5024857;28;20038;-78
2023/10/29 06:11:05;;;;;;;1.80;0.40;;;;;;;12.54;100.00;98783.84;5027323;28;20693;-77
2023/10/29 06:13:34;;;;;;;0.90;0.50;;;;;;;12.55;100.00;98782.06;5006290;28;20042;-80
2023/10/29 06:16:10;;;;;;;3.33;0.93;;;;;;;12.56;100.00;98800.34;5038269;28;20073;-78
2023/10/29 06:18:40;;;;;;;1.98;0.30;;;;;;;12.56;100.00;98789.84;5022218;28;20037;-78
2023/10/29 06:21:06;;;;;;;1.60;0.35;;;;;;;12.58;100.00;98790.63;5025503;28;20041;-77
2023/10/29 06:23:33;;;;;;;0.63;0.30;;;;;;;12.57;100.00;98780.22;5023239;28;20420;-81
2023/10/29 06:25:59;;;;;;;1.48;0.60;;;;;;;12.60;100.00;98774.81;5014020;28;20964;-78
2023/10/29 06:28:26;;;;;;;4.30;0.80;;;;;;;12.64;100.00;98792.13;5026644;28;20053;-79
2023/10/29 06:30:53;;;;;;;0.60;0.38;;;;;;;12.65;100.00;98795.63;5024282;28;20116;-79
2023/10/29 06:33:19;;;;;;;1.55;0.30;;;;;;;12.69;100.00;98789.28;5028175;28;20049;-78
2023/10/29 06:35:46;;;;;;;1.45;0.40;;;;;;;12.70;100.00;98801.50;5005849;28;20065;-81
2023/10/29 06:38:15;;;;;;;1.88;0.50;;;;;;;12.68;100.00;98824.31;5020729;28;20140;-80
2023/10/29 06:40:41;;;;;;;0.95;0.22;;;;;;;12.67;100.00;98813.00;5024544;28;20571;-77
2023/10/29 06:43:08;;;;;;;2.58;0.68;;;;;;;12.66;100.00;98819.16;5023622;28;20060;-77
2023/10/29 06:45:35;;;;;;;2.13;0.60;;;;;;;12.67;100.00;98807.75;5019404;28;20046;-80
2023/10/29 06:48:02;;;;;;;0.63;0.30;;;;;;;12.72;100.00;98805.75;5008316;28;20456;-80
2023/10/29 06:50:31;;;;;;;1.95;0.60;;;;;;;12.69;100.00;98802.41;5020949;28;20065;-78
2023/10/29 06:52:58;;;;;;;2.90;0.50;;;;;;;12.69;100.00;98824.25;5020665;28;20091;-79
2023/10/29 06:55:25;;;;;;;0.95;0.40;;;;;;;12.68;100.00;98819.06;5021740;28;20848;-81
2023/10/29 06:57:51;;;;;;;0.77;0.77;;;;;;;12.65;100.00;98819.25;5027782;28;20037;-77
2023/10/29 07:00:18;;;;;;;1.60;0.30;;;;;;;12.70;100.00;98812.84;5026970;28;20038;-76
2023/10/29 07:02:44;;;;;;;0.82;0.47;;;;;;;12.77;100.00;98797.63;5012298;28;20051;-76
2023/10/29 07:05:11;;;;;;;2.90;0.30;;;;;;;12.80;100.00;98799.25;5030734;28;20099;-79
2023/10/29 07:07:38;;;;;;;1.38;0.40;;;;;;;12.80;100.00;98810.63;5024964;28;20053;-80
2023/10/29 07:10:05;;;;;;;3.60;0.88;;;;;;;12.80;100.00;98804.50;5026943;28;20048;-79
2023/10/29 07:12:32;;;;;;;1.88;0.57;;;;;;;12.81;100.00;98804.44;5019856;28;20140;-78
2023/10/29 07:15:02;;;;;;;0.55;0.40;;;;;;;12.86;100.00;98806.84;5037922;28;20037;-81
2023/10/29 07:17:30;;;;;;;1.85;0.30;;;;;;;12.87;100.00;98801.53;5022076;28;20115;-78
2023/10/29 07:19:57;;;;;;;1.88;0.35;;;;;;;12.88;100.00;98807.63;5022100;28;20049;-81
2023/10/29 07:22:23;;;;;;;3.60;0.82;;;;;;;12.91;100.00;98802.22;5027897;28;20038;-80
2023/10/29 07:24:50;;;;;;;1.73;0.98;;;;;;;12.91;100.00;98805.69;5024237;28;20041;-76
2023/10/29 07:27:17;;;;;;;2.50;0.75;;;;;;;12.93;100.00;98796.91;5014512;28;20229;-77
2023/10/29 07:29:43;;;;;;;1.20;0.30;;;;;;;13.01;100.00;98802.63;5022812;28;20393;-78
2023/10/29 07:32:10;;;;;;;2.13;0.38;;;;;;;13.04;100.00;98798.06;5021592;28;20049;-76
2023/10/29 07:34:36;;;;;;;0.55;0.50;;;;;;;13.04;100.00;98792.00;5018157;28;20041;-79
2023/10/29 07:37:03;;;;;;;1.50;0.40;;;;;;;13.01;100.00;98808.75;5020522;28;20133;-80
2023/10/29 07:39:30;;;;;;;0.77;0.57;;;;;;;13.01;100.00;98800.88;5022005;28;20109;-78
2023/10/29 07:41:57;;;;;;;0.75;0.30;;;;;;;13.03;100.00;98816.53;5013464;28;20619;-80
2023/10/29 07:44:25;;;;;;;0.60;0.60;;;;;;;13.04;100.00;98805.97;5021146;28;20045;-78
2023/10/29 07:46:51;;;;;;;2.33;0.50;;;;;;;13.07;100.00;98807.59;5018883;28;21161;-78
2023/10/29 07:49:18;;;;;;;0.60;0.40;;;;;;;13.02;100.00;98814.84;5025534;28;20060;-76
2023/10/29 07:51:44;;;;;;;1.55;0.30;;;;;;;12.98;100.00;98818.53;5027965;28;20061;-78
2023/10/29 07:54:12;;;;;;;0.93;0.45;;;;;;;12.99;100.00;98810.59;5024737;28;20049;-79
2023/10/29 07:56:38;;;;;;;0.75;0.40;;;;;;;13.02;100.00;98797.31;5019725;28;20045;-77
2023/10/29 07:59:05;;;;;;;1.40;0.50;;;;;;;13.01;100.00;98802.63;5016908;28;20073;-77
2023/10/29 08:01:35;;;;;;;0.52;0.52;;;;;;;13.04;100.00;98811.22;5000869;28;20048;-80
2023/10/29 08:04:04;;;;;;;3.80;0.68;;;;;;;13.04;100.00;98813.00;5019429;28;20065;-77
2023/10/29 08:06:33;;;;;;;3.80;0.40;;;;;;;13.04;100.00;98816.47;5019925;28;20034;-78
2023/10/29 08:09:02;;;;;;;2.05;0.55;;;;;;;13.14;100.00;98813.38;5016160;28;20064;-77
2023/10/29 08:11:29;;;;;;;1.80;0.50;;;;;;;13.16;100.00;98814.16;5018293;28;20044;-78
2023/10/29 08:13:56;;;;;;;0.40;0.30;;;;;;;13.14;100.00;98824.75;5017334;28;20089;-79
2023/10/29 08:16:23;;;;;;;0.55;0.35;;;;;;;13.11;100.00;98817.00;5021300;28;20048;-77
2023/10/29 08:18:50;;;;;;;0.90;0.60;;;;;;;13.18;100.00;98820.19;5019981;28;20068;-77
2023/10/29 08:21:17;;;;;;;1.88;0.35;;;;;;;13.18;100.00;98821.06;5016686;28;20045;-77
2023/10/29 08:23:44;;;;;;;2.35;1.13;;;;;;;13.33;100.00;98815.97;5015056;28;20136;-76
2023/10/29 08:26:14;;;;;;;1.85;0.43;;;;;;;13.36;100.00;98813.16;5017219;28;20045;-82
2023/10/29 08:28:41;;;;;;;1.25;0.40;;;;;;;13.31;100.00;98813.41;5022088;28;20047;-78
2023/10/29 08:31:08;;;;;;;5.07;0.93;;;;;;;13.42;100.00;98818.16;5023003;28;20050;-82
2023/10/29 08:33:35;;;;;;;1.40;0.28;;;;;;;13.47;100.00;98824.03;5034422;28;20041;-77
2023/10/29 08:36:06;;;;;;;1.80;0.50;;;;;;;13.53;100.00;98822.88;5021793;28;20488;-78
2023/10/29 08:38:32;;;;;;;1.35;0.38;;;;;;;13.60;100.00;98808.50;5019946;28;20100;-78
2023/10/29 08:40:59;;;;;;;3.75;0.80;;;;;;;13.67;99.26;98824.81;5021477;28;20072;-78
2023/10/29 08:43:26;;;;;;;0.63;0.20;;;;;;;13.78;99.27;98821.63;5022631;28;20048;-78
2023/10/29 08:45:53;;;;;;;1.98;0.82;;;;;;;13.82;98.39;98820.53;5000717;28;20056;-82
2023/10/29 08:48:19;;;;;;;2.15;0.70;;;;;;;13.93;98.11;98823.47;5010893;28;20072;-76
2023/10/29 08:50:49;;;;;;;4.32;0.55;;;;;;;14.01;96.88;98817.78;5022008;28;20042;-78
2023/10/29 08:53:18;;;;;;;1.50;0.47;;;;;;;14.18;96.22;98827.44;5008053;28;20041;-80
2023/10/29 08:55:45;;;;;;;2.45;0.43;;;;;;;14.20;93.79;98822.94;5017247;28;20133;-78
2023/10/29 08:58:12;;;;;;;1.55;0.50;;;;;;;14.31;93.51;98820.56;5006595;28;20051;-80
2023/10/29 09:00:40;;;;;;;0.45;0.30;;;;;;;14.41;93.56;98822.72;5008325;28;20540;-79
2023/10/29 09:03:07;;;;;;;1.35;0.30;;;;;;;14.38;92.09;98839.53;5022466;28;20053;-78
2023/10/29 09:05:36;;;;;;;2.33;0.30;;;;;;;14.43;92.26;98855.94;5034874;28;20060;-78
2023/10/29 09:08:03;;;;;;;3.97;0.63;;;;;;;14.47;92.38;98853.97;5025402;28;20069;-77
2023/10/29 09:10:30;;;;;;;0.75;0.40;;;;;;;14.49;92.28;98873.19;5034827;28;20118;-78
2023/10/29 09:12:56;;;;;;;2.30;0.60;;;;;;;14.70;91.69;98873.81;5025873;28;20478;-79
2023/10/29 09:15:27;;;;;;;0.88;0.30;;;;;;;14.86;89.36;98879.97;5008200;28;20137;-81
2023/10/29 09:17:54;;;;;;;0.95;0.40;;;;;;;15.10;89.02;98887.44;5017539;28;20092;-80
2023/10/29 09:20:22;;;;;;;2.33;0.80;;;;;;;15.26;87.88;98897.13;5003758;28;20705;-77
2023/10/29 09:22:49;;;;;;;0.35;0.35;;;;;;;15.40;86.93;98894.53;5007388;28;20050;-80
2023/10/29 09:25:16;;;;;;;1.50;0.40;;;;;;;15.46;86.55;98906.50;5021290;28;20056;-79
2023/10/29 09:27:42;;;;;;;6.25;0.52;;;;;;;15.55;86.14;98887.53;5022471;28;20596;-80
2023/10/29 09:30:10;;;;;;;1.42;0.55;;;;;;;15.61;85.01;98892.44;5009389;28;20091;-78
2023/10/29 09:32:37;;;;;;;1.58;0.57;;;;;;;15.82;84.32;98894.81;5024127;28;20052;-82
2023/10/29 09:35:04;;;;;;;2.65;0.40;;;;;;;15.82;83.27;98895.66;5009109;28;20045;-77
2023/10/29 09:37:34;;;;;;;1.08;0.20;;;;;;;15.83;82.75;98881.53;5018822;28;20113;-78
2023/10/29 09:40:02;;;;;;;4.07;0.55;;;;;;;15.95;81.79;98892.28;5026092;28;20052;-78
2023/10/29 09:42:30;;;;;;;0.47;0.30;;;;;;;15.85;82.24;98907.81;5025848;28;20057;-77
2023/10/29 09:45:00;;;;;;;2.05;0.73;;;;;;;15.76;82.43;98897.75;5006583;28;20592;-78
2023/10/29 09:47:30;;;;;;;1.00;0.57;;;;;;;15.68;83.05;98907.00;5036469;28;20616;-77
2023/10/29 09:49:57;;;;;;;0.40;0.38;;;;;;;15.78;81.76;98919.66;5038483;28;20440;-80
2023/10/29 09:52:34;;;;;;;2.67;0.30;;;;;;;15.63;82.56;98910.81;5022381;28;20041;-85
2023/10/29 09:55:03;;;;;;;0.90;0.30;;;;;;;15.74;81.67;98941.88;5028466;28;20129;-81
2023/10/29 09:57:32;;;;;;;1.65;0.22;;;;;;;15.66;82.52;98931.75;5025526;28;20029;-81
2023/10/29 10:00:00;;;;;;;2.10;0.35;;;;;;;15.78;82.13;98938.13;5025750;28;20049;-83
2023/10/29 10:02:29;;;;;;;3.10;0.35;;;;;;;15.68;82.04;98937.78;5041203;28;20045;-82
2023/10/29 10:05:02;;;;;;;1.38;0.40;;;;;;;15.88;82.10;98939.31;5028542;28;20223;-77
2023/10/29 10:07:31;;;;;;;0.20;0.20;;;;;;;15.86;81.47;98939.38;5024989;28;20400;-80
2023/10/29 10:09:58;;;;;;;1.35;0.40;;;;;;;15.93;81.28;98934.63;5041127;28;20408;-78
2023/10/29 10:12:25;;;;;;;1.15;0.40;;;;;;;15.91;82.30;98947.03;5017484;28;20056;-83
2023/10/29 10:15:05;;;;;;;3.17;0.60;;;;;;;16.03;81.92;98940.19;5022723;28;20103;-77
2023/10/29 10:17:32;;;;;;;2.28;0.70;;;;;;;16.08;81.14;98950.47;5028430;28;20049;-80
2023/10/29 10:20:10;;;;;;;0.60;0.30;;;;;;;16.04;81.58;98945.38;5022361;28;20054;-81
2023/10/29 10:22:37;;;;;;;0.90;0.47;;;;;;;15.91;81.31;98947.03;5035255;28;20046;-78
2023/10/29 10:25:04;;;;;;;1.08;0.30;;;;;;;15.84;81.64;98953.63;5021845;28;20551;-81
2023/10/29 10:27:31;;;;;;;2.55;0.60;;;;;;;15.83;81.96;98960.66;5022738;28;20218;-80
2023/10/29 10:29:57;;;;;;;0.88;0.55;;;;;;;15.81;81.62;98961.69;5019782;28;20037;-82
2023/10/29 10:32:25;;;;;;;0.22;0.22;;;;;;;15.77;81.27;98971.53;5000151;28;20038;-79
2023/10/29 10:34:53;;;;;;;1.00;0.28;;;;;;;15.88;80.78;98969.16;5023892;28;20101;-82
2023/10/29 10:37:24;;;;;;;0.65;0.25;;;;;;;16.06;80.38;98976.09;5048842;28;20042;-82
2023/10/29 10:39:51;;;;;;;1.17;0.30;;;;;;;16.08;80.94;98972.44;5022376;28;20212;-78
2023/10/29 10:42:25;;;;;;;1.60;0.15;;;;;;;15.83;80.80;98978.31;5012971;28;20037;-78
2023/10/29 10:44:55;;;;;;;0.45;0.20;;;;;;;15.85;81.09;98974.63;5024838;28;20053;-82
2023/10/29 10:47:22;;;;;;;2.05;0.20;;;;;;;15.85;80.15;98964.09;5005198;28;20156;-78
2023/10/29 10:49:50;;;;;;;0.60;0.47;;;;;;;15.99;79.95;98972.97;5016401;28;20413;-78
2023/10/29 10:52:18;;;;;;;1.60;0.15;;;;;;;15.99;79.93;98963.25;5007665;28;20038;-77
2023/10/29 10:54:45;;;;;;;3.45;0.60;;;;;;;16.13;78.74;98953.69;5019217;28;20045;-77
2023/10/29 10:57:13;;;;;;;0.65;0.30;;;;;;;16.15;78.91;98950.03;5023871;28;20049;-80
2023/10/29 10:59:43;;;;;;;0.47;0.32;;;;;;;16.00;79.20;98948.28;5022342;28;20045;-83
2023/10/29 11:02:13;;;;;;;1.35;0.77;;;;;;;16.01;79.08;98955.28;5008102;28;20049;-79
2023/10/29 11:04:42;;;;;;;2.95;0.30;;;;;;;16.00;78.83;98943.84;5013749;28;20050;-83
2023/10/29 11:07:08;;;;;;;0.90;0.60;;;;;;;15.95;78.90;98947.72;5002578;28;20533;-81
2023/10/29 11:09:35;;;;;;;2.38;0.38;;;;;;;15.81;79.73;98946.75;5020330;28;20129;-80
2023/10/29 11:12:02;;;;;;;0.43;0.10;;;;;;;15.70;79.48;98938.56;5021319;28;20041;-77
2023/10/29 11:14:28;;;;;;;1.08;0.50;;;;;;;15.69;80.12;98947.41;5024093;28;20048;-81
2023/10/29 11:16:57;;;;;;;0.98;0.30;;;;;;;15.75;79.37;98962.88;5023753;28;20041;-77
2023/10/29 11:19:44;;;;;;;0.77;0.40;;;;;;;15.93;78.93;98966.28;5010884;28;20154;-77
2023/10/29 11:22:22;;;;;;;1.73;0.55;;;;;;;15.97;78.90;98965.16;5021027;28;20072;-85
2023/10/29 11:25:08;;;;;;;0.77;0.20;;;;;;;15.86;77.92;98962.28;5020860;28;20037;-78
2023/10/29 11:27:38;;;;;;;0.43;0.30;;;;;;;16.05;78.41;98962.06;5025188;28;20050;-79